createdAt,value
2022-12-19T00:01:36.278Z,35.33
2022-12-19T00:04:07.990Z,37.95
2022-12-19T00:06:36.369Z,36.33
2022-12-19T00:09:03.118Z,36.72
2022-12-19T00:11:29.928Z,38.55
2022-12-19T00:13:56.775Z,35.92
2022-12-19T00:16:29.218Z,35.65
2022-12-19T00:18:59.183Z,37.70
2022-12-19T00:21:28.820Z,38.90
2022-12-19T00:23:55.355Z,37.70
2022-12-19T00:26:27.698Z,36.83
2022-12-19T00:28:56.977Z,36.08
2022-12-19T00:31:24.911Z,37.45
2022-12-19T00:33:51.916Z,35.60
2022-12-19T00:36:22.893Z,36.40
2022-12-19T00:38:51.207Z,37.33
2022-12-19T00:41:23.694Z,37.22
2022-12-19T00:43:58.318Z,36.20
2022-12-19T00:46:25.648Z,37.42
2022-12-19T00:48:52.343Z,40.33
2022-12-19T00:51:30.494Z,39.10
2022-12-19T00:53:58.130Z,42.67
2022-12-19T00:56:37.298Z,39.28
2022-12-19T00:59:05.577Z,36.95
2022-12-19T01:01:34.778Z,39.58
2022-12-19T01:06:49.962Z,42.53
2022-12-19T01:09:17.343Z,39.33
2022-12-19T01:12:03.444Z,36.20
2022-12-19T01:14:29.844Z,36.38
2022-12-19T01:16:56.242Z,35.30
2022-12-19T01:19:22.643Z,38.28
2022-12-19T01:21:49.043Z,37.85
2022-12-19T01:24:18.913Z,36.90
2022-12-19T01:26:45.971Z,46.33
2022-12-19T01:29:12.367Z,50.85
2022-12-19T01:31:38.881Z,54.65
2022-12-19T01:34:05.336Z,61.25
2022-12-19T01:36:32.044Z,45.47
2022-12-19T01:38:58.540Z,38.92
2022-12-19T01:41:25.200Z,38.55
2022-12-19T01:43:54.628Z,40.28
2022-12-19T01:46:28.410Z,53.80
2022-12-19T01:48:56.641Z,55.58
2022-12-19T01:51:25.655Z,50.05
2022-12-19T01:54:01.509Z,42.60
2022-12-19T01:56:34.483Z,39.72
2022-12-19T01:59:07.004Z,39.60
2022-12-19T02:01:34.783Z,38.80
2022-12-19T02:04:02.769Z,47.28
2022-12-19T02:06:30.470Z,50.85
2022-12-19T02:08:57.326Z,61.75
2022-12-19T02:11:23.737Z,67.43
2022-12-19T02:13:50.197Z,52.35
2022-12-19T02:16:23.991Z,50.25
2022-12-19T02:19:23.605Z,49.17
2022-12-19T02:21:59.149Z,39.92
2022-12-19T02:24:41.628Z,43.65
2022-12-19T02:27:46.841Z,37.45
2022-12-19T02:30:18.028Z,59.20
2022-12-19T02:33:00.195Z,64.88
2022-12-19T02:35:33.423Z,51.40
2022-12-19T02:38:18.185Z,48.30
2022-12-19T02:41:05.214Z,43.58
2022-12-19T02:43:37.528Z,39.28
2022-12-19T02:46:06.394Z,39.47
2022-12-19T02:48:34.022Z,37.20
2022-12-19T02:51:00.455Z,39.13
2022-12-19T02:53:26.850Z,41.80
2022-12-19T02:56:10.529Z,41.58
2022-12-19T02:58:42.820Z,37.72
2022-12-19T03:01:42.280Z,40.60
2022-12-19T03:04:17.765Z,41.05
2022-12-19T03:06:54.015Z,36.42
2022-12-19T03:09:40.842Z,40.65
2022-12-19T03:12:17.332Z,40.72
2022-12-19T03:14:45.423Z,38.90
2022-12-19T03:17:11.874Z,38.58
2022-12-19T03:19:40.339Z,38.50
2022-12-19T03:22:07.456Z,37.00
2022-12-19T03:24:34.118Z,39.58
2022-12-19T03:27:11.228Z,39.30
2022-12-19T03:29:43.400Z,38.88
2022-12-19T03:32:13.811Z,42.83
2022-12-19T03:34:47.112Z,37.60
2022-12-19T03:37:17.767Z,37.42
2022-12-19T03:39:49.867Z,34.63
2022-12-19T03:42:37.308Z,38.70
2022-12-19T03:45:06.579Z,35.70
2022-12-19T03:47:44.359Z,38.22
2022-12-19T03:50:11.139Z,36.95
2022-12-19T03:52:43.652Z,36.08
2022-12-19T03:55:27.436Z,33.58
2022-12-19T03:57:59.177Z,32.15
2022-12-19T04:00:26.863Z,31.67
2022-12-19T04:02:57.364Z,32.63
2022-12-19T04:05:26.466Z,34.88
2022-12-19T04:07:56.319Z,35.60
2022-12-19T04:10:26.214Z,35.03
2022-12-19T04:13:02.735Z,35.95
2022-12-19T04:15:50.292Z,33.40
2022-12-19T04:18:18.396Z,33.20
2022-12-19T04:20:52.545Z,33.08
2022-12-19T04:23:26.973Z,33.53
2022-12-19T04:26:00.292Z,32.25
2022-12-19T04:28:34.802Z,37.08
2022-12-19T04:31:02.580Z,36.28
2022-12-19T04:33:29.097Z,38.15
2022-12-19T04:35:55.643Z,34.28
2022-12-19T04:38:22.279Z,39.47
2022-12-19T04:40:48.720Z,34.60
2022-12-19T04:43:15.150Z,41.15
2022-12-19T04:45:42.146Z,37.05
2022-12-19T04:48:09.259Z,35.22
2022-12-19T04:50:36.263Z,39.33
2022-12-19T04:53:02.789Z,37.63
2022-12-19T04:55:29.200Z,38.75
2022-12-19T04:57:55.652Z,38.85
2022-12-19T05:00:22.212Z,41.38
2022-12-19T05:02:48.770Z,39.25
2022-12-19T05:05:16.545Z,41.90
2022-12-19T05:07:43.054Z,44.20
2022-12-19T05:10:09.721Z,44.00
2022-12-19T05:12:36.307Z,46.67
2022-12-19T05:15:02.880Z,40.88
2022-12-19T05:17:29.296Z,42.65
2022-12-19T05:19:55.796Z,41.33
2022-12-19T05:22:22.184Z,43.53
2022-12-19T05:24:48.594Z,43.05
2022-12-19T05:27:15.073Z,45.28
2022-12-19T05:29:41.469Z,42.92
2022-12-19T05:32:08.025Z,44.65
2022-12-19T05:34:34.472Z,48.45
2022-12-19T05:37:03.032Z,56.30
2022-12-19T05:39:30.348Z,50.85
2022-12-19T05:41:56.777Z,50.38
2022-12-19T05:44:23.949Z,50.03
2022-12-19T05:46:50.967Z,51.95
2022-12-19T05:49:17.424Z,54.47
2022-12-19T05:51:43.885Z,54.88
2022-12-19T05:54:10.302Z,54.05
2022-12-19T05:56:36.687Z,54.75
2022-12-19T05:59:03.103Z,53.47
2022-12-19T06:01:30.264Z,54.55
2022-12-19T06:03:56.738Z,59.88
2022-12-19T06:06:26.062Z,53.65
2022-12-19T06:08:57.796Z,55.92
2022-12-19T06:11:25.104Z,51.75
2022-12-19T06:13:51.642Z,50.47
2022-12-19T06:16:19.802Z,54.50
2022-12-19T06:18:47.343Z,55.45
2022-12-19T06:21:19.414Z,53.00
2022-12-19T06:23:46.793Z,55.83
2022-12-19T06:26:19.517Z,56.10
2022-12-19T06:28:46.868Z,61.67
2022-12-19T06:31:13.888Z,117.03
2022-12-19T06:33:40.574Z,88.13
2022-12-19T06:36:11.960Z,70.72
2022-12-19T06:38:38.444Z,66.88
2022-12-19T06:41:23.465Z,66.85
2022-12-19T06:43:53.296Z,56.55
2022-12-19T06:46:20.522Z,56.28
2022-12-19T06:48:47.004Z,56.47
2022-12-19T06:51:13.449Z,52.72
2022-12-19T06:53:40.365Z,53.45
2022-12-19T06:56:07.378Z,58.00
2022-12-19T06:58:34.784Z,52.30
2022-12-19T07:01:01.626Z,53.50
2022-12-19T07:03:45.856Z,54.05
2022-12-19T07:06:15.905Z,54.08
2022-12-19T07:08:42.672Z,51.63
2022-12-19T07:11:09.145Z,53.03
2022-12-19T07:13:35.570Z,55.53
2022-12-19T07:16:04.122Z,55.20
2022-12-19T07:18:34.456Z,56.45
2022-12-19T07:21:01.765Z,60.33
2022-12-19T07:23:29.172Z,56.13
2022-12-19T07:25:55.701Z,58.88
2022-12-19T07:28:22.185Z,58.60
2022-12-19T07:30:48.639Z,57.25
2022-12-19T07:33:21.072Z,56.47
2022-12-19T07:35:48.200Z,59.78
2022-12-19T07:38:14.691Z,57.72
2022-12-19T07:40:41.185Z,59.42
2022-12-19T07:43:07.782Z,62.22
2022-12-19T07:45:37.588Z,58.75
2022-12-19T07:48:05.901Z,60.05
2022-12-19T07:50:33.527Z,55.72
2022-12-19T07:53:04.759Z,56.92
2022-12-19T07:55:31.186Z,55.50
2022-12-19T07:57:57.587Z,55.28
2022-12-19T08:00:24.242Z,55.83
2022-12-19T08:02:50.857Z,56.03
2022-12-19T08:05:17.807Z,50.63
2022-12-19T08:07:44.442Z,51.13
2022-12-19T08:10:15.038Z,51.10
2022-12-19T08:12:41.840Z,50.40
2022-12-19T08:15:08.681Z,50.25
2022-12-19T08:17:35.946Z,52.95
2022-12-19T08:20:02.476Z,47.33
2022-12-19T08:22:30.382Z,44.17
2022-12-19T08:24:57.625Z,50.05
2022-12-19T08:27:24.491Z,47.83
2022-12-19T08:29:51.006Z,49.25
2022-12-19T08:32:21.214Z,43.65
2022-12-19T08:34:48.366Z,46.53
2022-12-19T08:37:14.775Z,42.28
2022-12-19T08:39:41.253Z,45.08
2022-12-19T08:42:07.766Z,42.42
2022-12-19T08:44:34.181Z,47.40
2022-12-19T08:47:00.616Z,42.95
2022-12-19T08:49:29.312Z,44.03
2022-12-19T08:51:55.824Z,46.75
2022-12-19T08:54:22.226Z,45.88
2022-12-19T08:56:51.701Z,46.03
2022-12-19T08:59:19.091Z,45.60
2022-12-19T09:01:48.658Z,45.45
2022-12-19T09:05:58.508Z,46.50
2022-12-19T09:07:01.718Z,44.47
2022-12-19T09:09:28.425Z,46.15
2022-12-19T09:11:54.909Z,46.92
2022-12-19T09:14:21.778Z,46.25
2022-12-19T09:16:48.736Z,49.97
2022-12-19T09:19:16.762Z,50.85
2022-12-19T09:21:43.326Z,49.00
2022-12-19T09:24:10.189Z,48.92
2022-12-19T09:26:41.957Z,51.15
2022-12-19T09:29:20.759Z,48.90
2022-12-19T09:31:55.576Z,51.70
2022-12-19T09:34:37.668Z,53.20
2022-12-19T09:37:16.927Z,55.03
2022-12-19T09:39:47.829Z,54.80
2022-12-19T09:42:45.585Z,56.30
2022-12-19T09:45:49.031Z,55.45
2022-12-19T09:48:24.706Z,51.72
2022-12-19T09:51:10.160Z,56.80
2022-12-19T09:53:54.958Z,55.70
2022-12-19T09:56:23.634Z,53.65
2022-12-19T09:58:58.320Z,52.97
2022-12-19T10:01:32.834Z,54.05
2022-12-19T10:04:13.183Z,57.10
2022-12-19T10:07:11.922Z,56.47
2022-12-19T10:10:54.651Z,53.83
2022-12-19T10:12:45.781Z,54.97
2022-12-19T10:15:28.456Z,57.90
2022-12-19T10:18:13.855Z,60.58
2022-12-19T10:20:46.085Z,59.15
2022-12-19T10:23:21.126Z,58.60
2022-12-19T10:25:51.626Z,59.45
2022-12-19T10:28:52.169Z,59.40
2022-12-19T10:31:24.002Z,58.20
2022-12-19T10:34:02.865Z,60.55
2022-12-19T10:37:12.468Z,66.38
2022-12-19T10:39:29.592Z,60.08
2022-12-19T10:42:02.877Z,58.00
2022-12-19T10:44:32.239Z,54.30
2022-12-19T10:46:58.703Z,58.67
2022-12-19T10:49:26.668Z,60.63
2022-12-19T10:51:55.918Z,61.60
2022-12-19T10:54:38.531Z,58.90
2022-12-19T10:57:28.260Z,63.05
2022-12-19T11:00:03.856Z,62.63
2022-12-19T11:02:51.551Z,62.90
2022-12-19T11:05:41.310Z,61.45
2022-12-19T11:08:07.685Z,66.60
2022-12-19T11:11:15.496Z,62.10
2022-12-19T11:18:48.364Z,59.88
2022-12-19T11:22:10.425Z,65.40
2022-12-19T11:29:40.714Z,58.55
2022-12-19T11:29:41.548Z,64.97
2022-12-19T11:30:06.049Z,61.03
2022-12-19T11:30:38.165Z,64.75
2022-12-19T11:34:24.482Z,68.65
2022-12-19T11:37:11.887Z,64.15
2022-12-19T11:39:53.257Z,80.75
2022-12-19T11:42:36.964Z,65.68
2022-12-19T11:45:12.097Z,64.97
2022-12-19T11:47:47.800Z,61.13
2022-12-19T11:50:21.706Z,59.63
2022-12-19T11:53:07.709Z,66.13
2022-12-19T11:55:53.566Z,60.13
2022-12-19T11:58:22.495Z,60.83
2022-12-19T12:01:09.194Z,59.92
2022-12-19T12:04:03.588Z,59.60
2022-12-19T12:06:38.618Z,54.55
2022-12-19T12:13:04.138Z,58.03
2022-12-19T12:20:50.688Z,59.38
2022-12-19T12:31:02.828Z,53.55
2022-12-19T12:31:09.270Z,55.13
2022-12-19T12:31:23.833Z,57.00
2022-12-19T12:32:04.824Z,55.38
2022-12-19T12:32:04.978Z,49.67
2022-12-19T12:35:51.499Z,53.28
2022-12-19T12:41:03.431Z,51.05
2022-12-19T12:43:57.622Z,47.30
2022-12-19T12:46:27.558Z,46.25
2022-12-19T12:49:04.020Z,45.15
2022-12-19T12:51:33.475Z,48.05
2022-12-19T12:54:14.224Z,44.95
2022-12-19T12:56:42.145Z,49.90
2022-12-19T12:59:24.247Z,49.15
2022-12-19T13:01:56.928Z,46.47
2022-12-19T13:04:35.104Z,47.95
2022-12-19T13:07:13.691Z,48.85
2022-12-19T13:09:41.292Z,50.70
2022-12-19T13:12:45.796Z,48.75
2022-12-19T13:15:37.477Z,50.65
2022-12-19T13:18:14.390Z,47.45
2022-12-19T13:20:48.049Z,60.78
2022-12-19T13:23:33.679Z,56.30
2022-12-19T13:26:01.179Z,51.47
2022-12-19T13:28:27.523Z,49.35
2022-12-19T13:31:21.291Z,55.45
2022-12-19T13:33:56.082Z,60.85
2022-12-19T13:39:50.928Z,68.60
2022-12-19T13:40:02.475Z,56.65
2022-12-19T13:42:46.964Z,52.85
2022-12-19T13:45:15.459Z,55.58
2022-12-19T13:47:44.443Z,52.22
2022-12-19T13:50:38.528Z,54.00
2022-12-19T13:53:19.933Z,57.88
2022-12-19T13:55:46.534Z,54.90
2022-12-19T13:58:29.323Z,56.40
2022-12-19T14:01:01.172Z,55.65
2022-12-19T14:06:24.122Z,53.13
2022-12-19T14:09:25.119Z,59.13
2022-12-19T14:12:17.562Z,63.67
2022-12-19T14:14:49.013Z,55.75
2022-12-19T14:17:33.228Z,57.85
2022-12-19T14:22:02.840Z,59.22
2022-12-19T14:22:59.276Z,56.10
2022-12-19T14:28:16.744Z,52.45
2022-12-19T14:28:31.027Z,55.60
2022-12-19T14:31:02.967Z,50.85
2022-12-19T14:33:46.161Z,52.60
2022-12-19T14:36:27.401Z,52.90
2022-12-19T14:39:22.153Z,52.10
2022-12-19T14:42:03.441Z,51.35
2022-12-19T14:52:51.479Z,51.50
2022-12-19T14:54:11.922Z,59.35
2022-12-19T14:54:37.407Z,78.32
2022-12-19T14:54:40.851Z,58.55
2022-12-19T14:59:01.616Z,51.17
2022-12-19T15:01:32.012Z,79.35
2022-12-19T15:04:53.435Z,79.00
2022-12-19T15:07:09.185Z,106.78
2022-12-19T15:11:08.672Z,79.63
2022-12-19T15:14:52.223Z,64.38
2022-12-19T15:16:06.054Z,49.72
2022-12-19T15:18:32.569Z,52.58
2022-12-19T15:21:05.020Z,55.53
2022-12-19T15:23:31.823Z,55.10
2022-12-19T15:26:05.681Z,57.72
2022-12-19T15:28:53.771Z,56.95
2022-12-19T15:31:39.935Z,53.25
2022-12-19T15:34:37.319Z,55.72
2022-12-19T15:37:11.102Z,57.10
2022-12-19T15:39:37.955Z,58.08
2022-12-19T15:42:05.432Z,55.58
2022-12-19T15:44:37.803Z,55.95
2022-12-19T15:47:07.617Z,50.58
2022-12-19T15:49:35.143Z,57.60
2022-12-19T15:52:02.691Z,56.88
2022-12-19T15:57:22.741Z,51.50
2022-12-19T15:59:49.792Z,54.45
2022-12-19T16:02:20.486Z,54.60
2022-12-19T16:04:50.068Z,58.22
2022-12-19T16:07:18.951Z,64.13
2022-12-19T16:09:45.592Z,54.88
2022-12-19T16:12:16.102Z,54.72
2022-12-19T16:14:43.209Z,56.88
2022-12-19T16:17:17.817Z,52.97
2022-12-19T16:19:44.458Z,58.30
2022-12-19T16:22:25.502Z,63.83
2022-12-19T16:24:53.438Z,67.38
2022-12-19T16:27:31.639Z,63.13
2022-12-19T16:30:18.634Z,61.45
2022-12-19T16:32:45.911Z,62.25
2022-12-19T16:35:17.483Z,64.00
2022-12-19T16:37:50.825Z,71.55
2022-12-19T16:40:26.593Z,67.38
2022-12-19T16:43:04.434Z,68.10
2022-12-19T16:45:33.430Z,69.40
2022-12-19T16:48:00.033Z,59.97
2022-12-19T16:50:29.702Z,70.43
2022-12-19T16:52:57.113Z,63.60
2022-12-19T16:55:25.572Z,72.90
2022-12-19T16:57:55.518Z,84.68
2022-12-19T17:00:23.422Z,75.90
2022-12-19T17:02:58.510Z,63.40
2022-12-19T17:05:30.207Z,68.03
2022-12-19T17:10:30.029Z,64.80
2022-12-19T17:12:58.043Z,65.93
2022-12-19T17:15:29.019Z,65.95
2022-12-19T17:18:01.567Z,61.10
2022-12-19T17:20:35.401Z,70.82
2022-12-19T17:23:01.873Z,71.50
2022-12-19T17:25:28.404Z,67.70
2022-12-19T17:27:55.860Z,67.55
2022-12-19T17:30:22.622Z,69.35
2022-12-19T17:32:52.805Z,74.40
2022-12-19T17:35:27.551Z,71.78
2022-12-19T17:37:56.621Z,66.53
2022-12-19T17:40:26.305Z,64.80
2022-12-19T17:42:53.491Z,59.03
2022-12-19T17:45:21.582Z,62.00
2022-12-19T17:47:48.717Z,59.92
2022-12-19T17:50:26.680Z,61.60
2022-12-19T17:52:55.054Z,63.60
2022-12-19T17:55:22.805Z,60.58
2022-12-19T17:57:49.944Z,57.67
2022-12-19T18:00:18.821Z,57.10
2022-12-19T18:02:47.498Z,72.82
2022-12-19T18:05:24.837Z,74.90
2022-12-19T18:07:52.536Z,76.95
2022-12-19T18:10:22.219Z,67.55
2022-12-19T18:12:49.155Z,66.70
2022-12-19T18:15:16.563Z,71.60
2022-12-19T18:17:44.387Z,67.82
2022-12-19T18:20:31.265Z,64.57
2022-12-19T18:22:59.921Z,63.33
2022-12-19T18:25:29.621Z,58.53
2022-12-19T18:27:56.244Z,59.42
2022-12-19T18:30:23.860Z,73.40
2022-12-19T18:32:55.981Z,70.80
2022-12-19T18:35:37.321Z,70.90
2022-12-19T18:38:23.311Z,70.22
2022-12-19T18:40:51.953Z,72.45
2022-12-19T18:43:19.162Z,63.95
2022-12-19T18:45:48.932Z,59.78
2022-12-19T18:48:23.193Z,66.22
2022-12-19T18:50:49.664Z,64.22
2022-12-19T18:53:21.457Z,68.18
2022-12-19T18:55:48.243Z,71.25
2022-12-19T18:58:15.289Z,66.72
2022-12-19T19:00:42.351Z,65.55
2022-12-19T19:03:14.821Z,65.18
2022-12-19T19:05:41.562Z,71.75
2022-12-19T19:08:28.772Z,75.38
2022-12-19T19:10:56.322Z,75.95
2022-12-19T19:13:25.557Z,75.68
2022-12-19T19:15:56.825Z,69.60
2022-12-19T19:18:29.804Z,69.35
2022-12-19T19:21:01.026Z,65.05
2022-12-19T19:23:32.692Z,63.47
2022-12-19T19:25:59.247Z,60.47
2022-12-19T19:28:25.695Z,59.55
2022-12-19T19:30:52.471Z,58.10
2022-12-19T19:33:22.742Z,61.15
2022-12-19T19:35:53.305Z,55.78
2022-12-19T19:38:21.408Z,54.42
2022-12-19T19:40:47.856Z,62.00
2022-12-19T19:43:14.515Z,63.67
2022-12-19T19:45:43.493Z,63.10
2022-12-19T19:48:10.301Z,60.95
2022-12-19T19:50:36.745Z,67.82
2022-12-19T19:53:03.327Z,61.08
2022-12-19T19:55:29.787Z,61.25
2022-12-19T19:57:56.318Z,57.83
2022-12-19T20:00:22.855Z,71.57
2022-12-19T20:02:50.023Z,62.75
2022-12-19T20:05:17.303Z,67.43
2022-12-19T20:07:43.808Z,64.43
2022-12-19T20:10:10.839Z,103.25
2022-12-19T20:12:37.325Z,113.75
2022-12-19T20:15:05.154Z,89.32
2022-12-19T20:17:31.589Z,74.80
2022-12-19T20:19:58.058Z,60.95
2022-12-19T20:22:24.494Z,70.18
2022-12-19T20:24:50.952Z,65.90
2022-12-19T20:27:17.467Z,59.40
2022-12-19T20:29:43.886Z,55.60
2022-12-19T20:32:10.532Z,57.60
2022-12-19T20:34:37.311Z,50.10
2022-12-19T20:37:03.725Z,89.28
2022-12-19T20:39:30.380Z,79.53
2022-12-19T20:41:56.799Z,74.18
2022-12-19T20:44:24.630Z,90.35
2022-12-19T20:46:51.960Z,76.93
2022-12-19T20:49:18.730Z,59.42
2022-12-19T20:51:47.557Z,65.28
2022-12-19T20:54:14.886Z,59.00
2022-12-19T20:56:42.547Z,61.38
2022-12-19T20:59:09.815Z,58.75
2022-12-19T21:01:36.440Z,51.28
2022-12-19T21:04:03.505Z,53.63
2022-12-19T21:06:30.232Z,49.75
2022-12-19T21:08:57.602Z,54.42
2022-12-19T21:11:26.103Z,50.60
2022-12-19T21:13:52.784Z,54.67
2022-12-19T21:16:21.826Z,63.20
2022-12-19T21:18:49.397Z,62.75
2022-12-19T21:21:19.285Z,56.92
2022-12-19T21:23:46.655Z,61.63
2022-12-19T21:26:13.388Z,57.10
2022-12-19T21:28:40.231Z,54.20
2022-12-19T21:31:13.660Z,51.88
2022-12-19T21:33:40.249Z,53.33
2022-12-19T21:36:16.585Z,58.38
2022-12-19T21:38:43.123Z,58.00
2022-12-19T21:41:10.434Z,55.83
2022-12-19T21:43:36.961Z,51.00
2022-12-19T21:46:10.738Z,53.30
2022-12-19T21:48:39.212Z,53.42
2022-12-19T21:51:06.776Z,57.72
2022-12-19T21:53:34.251Z,51.38
2022-12-19T21:56:06.809Z,51.88
2022-12-19T21:58:33.515Z,50.45
2022-12-19T22:01:08.133Z,68.10
2022-12-19T22:03:35.529Z,58.85
2022-12-19T22:06:02.065Z,55.55
2022-12-19T22:08:28.632Z,55.05
2022-12-19T22:10:55.065Z,52.72
2022-12-19T22:13:21.540Z,51.97
2022-12-19T22:15:48.082Z,56.50
2022-12-19T22:18:14.554Z,59.83
2022-12-19T22:20:44.962Z,52.42
2022-12-19T22:23:13.556Z,53.30
2022-12-19T22:25:40.245Z,49.20
2022-12-19T22:28:07.314Z,52.08
2022-12-19T22:30:36.800Z,52.50
2022-12-19T22:33:04.108Z,54.75
2022-12-19T22:35:32.683Z,54.92
2022-12-19T22:37:59.214Z,54.72
2022-12-19T22:40:25.645Z,52.13
2022-12-19T22:42:52.223Z,60.13
2022-12-19T22:45:18.701Z,61.97
2022-12-19T22:47:45.205Z,55.33
2022-12-19T22:50:11.678Z,54.50
2022-12-19T22:52:39.110Z,48.83
2022-12-19T22:55:06.596Z,51.65
2022-12-19T22:57:33.411Z,57.00
2022-12-19T22:59:59.903Z,61.40
2022-12-19T23:02:26.562Z,55.95
2022-12-19T23:04:53.126Z,54.90
2022-12-19T23:07:20.858Z,50.60
2022-12-19T23:09:47.249Z,52.42
2022-12-19T23:12:13.735Z,73.85
2022-12-19T23:14:40.157Z,99.95
2022-12-19T23:17:06.698Z,81.40
2022-12-19T23:19:33.188Z,76.25
2022-12-19T23:22:00.306Z,67.65
2022-12-19T23:24:27.051Z,53.13
2022-12-19T23:26:53.482Z,54.88
2022-12-19T23:29:19.905Z,51.35
2022-12-19T23:31:47.252Z,54.53
2022-12-19T23:34:14.925Z,50.35
2022-12-19T23:39:27.786Z,55.10
2022-12-19T23:41:54.178Z,56.78
2022-12-19T23:44:20.741Z,49.22
2022-12-19T23:46:47.204Z,50.25
2022-12-19T23:49:13.659Z,52.00
2022-12-19T23:51:40.094Z,52.70
2022-12-19T23:54:06.645Z,55.65
2022-12-19T23:56:33.167Z,57.17
2022-12-19T23:59:00.716Z,55.88
